Christian Sabionski

Kontakt

Geschäftsführer

Adresse:
Meisenweg 8
D-85232 Feldgeding

Telefon: +49 (0)172 8140311

Kontaktformular

Eine E-Mail senden. Alle mit * markierten Felder werden benötigt.

Flugwetter Augsburg

[source: ADDS]
METAR
EDMA 162150Z AUTO 20008KT 150V230 9999 // BKN220/// 13/M00 Q1015 =
TAF EDMA 161700Z 1618/1703 15010KT CAVOK BECMG 1621/1623 21010KT
TAF
TAF EDMA 161700Z 1618/1703 15010KT CAVOK BECMG 1621/1623 21010KT =
Cookies erleichtern die Bereitstellung unserer Dienste. Mit der Nutzung unserer Dienste erklären Sie sich damit einverstanden, dass wir Cookies verwenden.
Weitere Informationen Ok